sensor_id;sensor_type;location;lat;lon;timestamp;P1;durP1;ratioP1;P2;durP2;ratioP2
53503;SDS011;39387;50.998;22.340;2022-10-14T00:02:17;35.95;;;16.35;;
53503;SDS011;39387;50.998;22.340;2022-10-14T00:04:44;29.08;;;14.80;;
53503;SDS011;39387;50.998;22.340;2022-10-14T00:07:13;29.88;;;15.20;;
53503;SDS011;39387;50.998;22.340;2022-10-14T00:09:40;27.63;;;15.15;;
53503;SDS011;39387;50.998;22.340;2022-10-14T00:12:07;30.85;;;15.50;;
53503;SDS011;39387;50.998;22.340;2022-10-14T00:14:35;25.55;;;13.55;;
53503;SDS011;39387;50.998;22.340;2022-10-14T00:17:02;26.98;;;14.52;;
53503;SDS011;39387;50.998;22.340;2022-10-14T00:19:30;28.73;;;14.82;;
53503;SDS011;39387;50.998;22.340;2022-10-14T00:21:57;26.42;;;14.60;;
53503;SDS011;39387;50.998;22.340;2022-10-14T00:24:26;25.55;;;13.50;;
53503;SDS011;39387;50.998;22.340;2022-10-14T00:26:53;25.17;;;13.43;;
53503;SDS011;39387;50.998;22.340;2022-10-14T00:29:20;31.63;;;14.07;;
53503;SDS011;39387;50.998;22.340;2022-10-14T00:31:48;27.20;;;14.25;;
53503;SDS011;39387;50.998;22.340;2022-10-14T00:34:16;29.63;;;14.68;;
53503;SDS011;39387;50.998;22.340;2022-10-14T00:36:43;26.02;;;13.73;;
53503;SDS011;39387;50.998;22.340;2022-10-14T00:39:11;29.58;;;14.18;;
53503;SDS011;39387;50.998;22.340;2022-10-14T00:41:40;28.23;;;14.38;;
53503;SDS011;39387;50.998;22.340;2022-10-14T00:47:07;23.13;;;12.48;;
53503;SDS011;39387;50.998;22.340;2022-10-14T00:49:36;27.45;;;13.45;;
53503;SDS011;39387;50.998;22.340;2022-10-14T00:52:06;26.05;;;13.20;;
53503;SDS011;39387;50.998;22.340;2022-10-14T00:54:38;24.00;;;13.25;;
53503;SDS011;39387;50.998;22.340;2022-10-14T00:57:08;25.40;;;13.68;;
53503;SDS011;39387;50.998;22.340;2022-10-14T00:59:36;26.40;;;12.75;;
53503;SDS011;39387;50.998;22.340;2022-10-14T01:02:04;31.25;;;15.48;;
53503;SDS011;39387;50.998;22.340;2022-10-14T01:04:32;27.38;;;14.13;;
53503;SDS011;39387;50.998;22.340;2022-10-14T01:07:01;28.17;;;14.65;;
53503;SDS011;39387;50.998;22.340;2022-10-14T01:09:35;28.60;;;14.40;;
53503;SDS011;39387;50.998;22.340;2022-10-14T01:12:08;29.77;;;13.20;;
53503;SDS011;39387;50.998;22.340;2022-10-14T01:14:44;27.25;;;13.40;;
53503;SDS011;39387;50.998;22.340;2022-10-14T01:17:16;24.48;;;13.18;;
53503;SDS011;39387;50.998;22.340;2022-10-14T01:19:59;23.88;;;12.98;;
53503;SDS011;39387;50.998;22.340;2022-10-14T01:22:37;26.00;;;12.88;;
53503;SDS011;39387;50.998;22.340;2022-10-14T01:25:09;20.30;;;11.43;;
53503;SDS011;39387;50.998;22.340;2022-10-14T01:30:32;24.63;;;14.32;;
53503;SDS011;39387;50.998;22.340;2022-10-14T01:33:07;31.45;;;15.20;;
53503;SDS011;39387;50.998;22.340;2022-10-14T01:35:38;29.42;;;14.93;;
53503;SDS011;39387;50.998;22.340;2022-10-14T01:38:10;29.25;;;14.27;;
53503;SDS011;39387;50.998;22.340;2022-10-14T01:40:40;31.83;;;15.43;;
53503;SDS011;39387;50.998;22.340;2022-10-14T01:43:11;36.92;;;16.58;;
53503;SDS011;39387;50.998;22.340;2022-10-14T01:45:41;24.05;;;13.07;;
53503;SDS011;39387;50.998;22.340;2022-10-14T01:48:09;28.67;;;14.30;;
53503;SDS011;39387;50.998;22.340;2022-10-14T01:50:36;30.08;;;13.40;;
53503;SDS011;39387;50.998;22.340;2022-10-14T01:53:05;27.55;;;14.43;;
53503;SDS011;39387;50.998;22.340;2022-10-14T01:55:36;27.20;;;12.45;;
53503;SDS011;39387;50.998;22.340;2022-10-14T01:58:05;28.52;;;13.40;;
53503;SDS011;39387;50.998;22.340;2022-10-14T02:00:32;26.40;;;13.95;;
53503;SDS011;39387;50.998;22.340;2022-10-14T02:03:01;27.27;;;13.85;;
53503;SDS011;39387;50.998;22.340;2022-10-14T02:05:29;27.38;;;13.43;;
53503;SDS011;39387;50.998;22.340;2022-10-14T02:10:32;21.58;;;11.93;;
53503;SDS011;39387;50.998;22.340;2022-10-14T02:13:11;24.70;;;12.23;;
53503;SDS011;39387;50.998;22.340;2022-10-14T02:15:46;37.38;;;16.70;;
53503;SDS011;39387;50.998;22.340;2022-10-14T02:18:21;23.50;;;12.25;;
53503;SDS011;39387;50.998;22.340;2022-10-14T02:20:53;32.40;;;14.60;;
53503;SDS011;39387;50.998;22.340;2022-10-14T02:23:23;35.20;;;15.15;;
53503;SDS011;39387;50.998;22.340;2022-10-14T02:25:52;32.20;;;15.43;;
53503;SDS011;39387;50.998;22.340;2022-10-14T02:28:21;26.73;;;13.77;;
53503;SDS011;39387;50.998;22.340;2022-10-14T02:30:52;29.67;;;14.40;;
53503;SDS011;39387;50.998;22.340;2022-10-14T02:33:23;27.13;;;13.70;;
53503;SDS011;39387;50.998;22.340;2022-10-14T02:35:53;28.60;;;14.57;;
53503;SDS011;39387;50.998;22.340;2022-10-14T02:38:22;34.60;;;15.05;;
53503;SDS011;39387;50.998;22.340;2022-10-14T02:40:50;37.33;;;16.75;;
53503;SDS011;39387;50.998;22.340;2022-10-14T02:43:17;34.80;;;16.35;;
53503;SDS011;39387;50.998;22.340;2022-10-14T02:45:44;36.70;;;16.50;;
53503;SDS011;39387;50.998;22.340;2022-10-14T02:48:12;45.55;;;17.15;;
53503;SDS011;39387;50.998;22.340;2022-10-14T02:50:41;43.58;;;17.25;;
53503;SDS011;39387;50.998;22.340;2022-10-14T02:53:08;39.63;;;16.60;;
53503;SDS011;39387;50.998;22.340;2022-10-14T02:55:39;53.70;;;19.77;;
53503;SDS011;39387;50.998;22.340;2022-10-14T02:58:06;44.58;;;18.30;;
53503;SDS011;39387;50.998;22.340;2022-10-14T03:00:33;45.65;;;17.50;;
53503;SDS011;39387;50.998;22.340;2022-10-14T03:03:01;53.80;;;18.15;;
53503;SDS011;39387;50.998;22.340;2022-10-14T03:05:28;54.90;;;19.40;;
53503;SDS011;39387;50.998;22.340;2022-10-14T03:07:57;54.95;;;21.10;;
53503;SDS011;39387;50.998;22.340;2022-10-14T03:10:24;51.63;;;20.98;;
53503;SDS011;39387;50.998;22.340;2022-10-14T03:12:52;48.35;;;19.83;;
53503;SDS011;39387;50.998;22.340;2022-10-14T03:15:19;48.35;;;20.15;;
53503;SDS011;39387;50.998;22.340;2022-10-14T03:17:46;51.88;;;19.77;;
53503;SDS011;39387;50.998;22.340;2022-10-14T03:20:14;58.70;;;21.00;;
53503;SDS011;39387;50.998;22.340;2022-10-14T03:22:41;51.95;;;18.98;;
53503;SDS011;39387;50.998;22.340;2022-10-14T03:25:10;54.42;;;19.90;;
53503;SDS011;39387;50.998;22.340;2022-10-14T03:27:37;68.10;;;22.92;;
53503;SDS011;39387;50.998;22.340;2022-10-14T03:30:06;61.78;;;22.42;;
53503;SDS011;39387;50.998;22.340;2022-10-14T03:32:36;54.33;;;19.70;;
53503;SDS011;39387;50.998;22.340;2022-10-14T03:35:03;47.65;;;19.08;;
53503;SDS011;39387;50.998;22.340;2022-10-14T03:37:31;49.75;;;17.85;;
53503;SDS011;39387;50.998;22.340;2022-10-14T03:39:58;40.20;;;17.10;;
53503;SDS011;39387;50.998;22.340;2022-10-14T03:42:27;46.55;;;18.38;;
53503;SDS011;39387;50.998;22.340;2022-10-14T03:44:54;41.40;;;16.83;;
53503;SDS011;39387;50.998;22.340;2022-10-14T03:47:22;45.20;;;18.02;;
53503;SDS011;39387;50.998;22.340;2022-10-14T03:49:49;41.90;;;16.73;;
53503;SDS011;39387;50.998;22.340;2022-10-14T03:52:16;40.83;;;16.27;;
53503;SDS011;39387;50.998;22.340;2022-10-14T03:54:44;36.95;;;14.73;;
53503;SDS011;39387;50.998;22.340;2022-10-14T03:57:11;37.30;;;15.15;;
53503;SDS011;39387;50.998;22.340;2022-10-14T03:59:40;40.15;;;16.60;;
53503;SDS011;39387;50.998;22.340;2022-10-14T04:02:07;28.98;;;13.35;;
53503;SDS011;39387;50.998;22.340;2022-10-14T04:04:34;36.30;;;13.95;;
53503;SDS011;39387;50.998;22.340;2022-10-14T04:07:02;30.02;;;12.98;;
53503;SDS011;39387;50.998;22.340;2022-10-14T04:09:29;31.52;;;13.73;;
53503;SDS011;39387;50.998;22.340;2022-10-14T04:11:56;31.67;;;14.50;;
53503;SDS011;39387;50.998;22.340;2022-10-14T04:14:24;32.40;;;13.50;;
53503;SDS011;39387;50.998;22.340;2022-10-14T04:16:53;29.85;;;12.98;;
53503;SDS011;39387;50.998;22.340;2022-10-14T04:19:20;29.63;;;12.00;;
53503;SDS011;39387;50.998;22.340;2022-10-14T04:21:47;25.67;;;12.20;;
53503;SDS011;39387;50.998;22.340;2022-10-14T04:24:15;26.65;;;12.05;;
53503;SDS011;39387;50.998;22.340;2022-10-14T04:26:42;29.90;;;11.50;;
53503;SDS011;39387;50.998;22.340;2022-10-14T04:29:09;25.38;;;11.15;;
53503;SDS011;39387;50.998;22.340;2022-10-14T04:31:37;30.45;;;12.07;;
53503;SDS011;39387;50.998;22.340;2022-10-14T04:34:05;23.17;;;10.75;;
53503;SDS011;39387;50.998;22.340;2022-10-14T04:36:33;27.13;;;11.75;;
53503;SDS011;39387;50.998;22.340;2022-10-14T04:39:00;27.23;;;12.00;;
53503;SDS011;39387;50.998;22.340;2022-10-14T04:41:27;26.08;;;11.45;;
53503;SDS011;39387;50.998;22.340;2022-10-14T04:43:55;25.35;;;11.40;;
53503;SDS011;39387;50.998;22.340;2022-10-14T04:46:22;29.13;;;11.57;;
53503;SDS011;39387;50.998;22.340;2022-10-14T04:48:49;23.85;;;10.93;;
53503;SDS011;39387;50.998;22.340;2022-10-14T04:51:18;24.27;;;11.63;;
53503;SDS011;39387;50.998;22.340;2022-10-14T04:53:45;23.77;;;10.48;;
53503;SDS011;39387;50.998;22.340;2022-10-14T04:56:13;25.38;;;11.77;;
53503;SDS011;39387;50.998;22.340;2022-10-14T04:58:40;29.00;;;11.63;;
53503;SDS011;39387;50.998;22.340;2022-10-14T05:01:07;28.13;;;11.80;;
53503;SDS011;39387;50.998;22.340;2022-10-14T05:03:35;23.08;;;11.45;;
53503;SDS011;39387;50.998;22.340;2022-10-14T05:06:02;25.90;;;10.30;;
53503;SDS011;39387;50.998;22.340;2022-10-14T05:08:31;26.65;;;10.65;;
53503;SDS011;39387;50.998;22.340;2022-10-14T05:11:01;24.75;;;10.63;;
53503;SDS011;39387;50.998;22.340;2022-10-14T05:13:35;28.90;;;11.75;;
53503;SDS011;39387;50.998;22.340;2022-10-14T05:16:02;33.85;;;11.05;;
53503;SDS011;39387;50.998;22.340;2022-10-14T05:18:30;25.33;;;10.23;;
53503;SDS011;39387;50.998;22.340;2022-10-14T05:20:57;24.95;;;10.45;;
53503;SDS011;39387;50.998;22.340;2022-10-14T05:23:24;17.85;;;9.65;;
53503;SDS011;39387;50.998;22.340;2022-10-14T05:25:53;26.20;;;10.90;;
53503;SDS011;39387;50.998;22.340;2022-10-14T05:28:20;22.30;;;10.93;;
53503;SDS011;39387;50.998;22.340;2022-10-14T05:30:47;24.90;;;10.52;;
53503;SDS011;39387;50.998;22.340;2022-10-14T05:33:15;25.75;;;11.52;;
53503;SDS011;39387;50.998;22.340;2022-10-14T05:35:42;40.42;;;11.20;;
53503;SDS011;39387;50.998;22.340;2022-10-14T05:38:09;22.45;;;10.38;;
53503;SDS011;39387;50.998;22.340;2022-10-14T05:40:38;23.00;;;10.10;;
53503;SDS011;39387;50.998;22.340;2022-10-14T05:43:06;23.25;;;10.02;;
53503;SDS011;39387;50.998;22.340;2022-10-14T05:45:34;21.13;;;9.05;;
53503;SDS011;39387;50.998;22.340;2022-10-14T05:48:01;41.72;;;10.07;;
53503;SDS011;39387;50.998;22.340;2022-10-14T05:50:28;30.38;;;10.38;;
53503;SDS011;39387;50.998;22.340;2022-10-14T05:52:55;21.02;;;9.52;;
53503;SDS011;39387;50.998;22.340;2022-10-14T05:55:23;20.20;;;9.48;;
53503;SDS011;39387;50.998;22.340;2022-10-14T05:57:53;21.33;;;9.65;;
53503;SDS011;39387;50.998;22.340;2022-10-14T06:00:23;16.92;;;9.30;;
53503;SDS011;39387;50.998;22.340;2022-10-14T06:02:50;18.40;;;8.90;;
53503;SDS011;39387;50.998;22.340;2022-10-14T06:05:17;23.25;;;10.20;;
53503;SDS011;39387;50.998;22.340;2022-10-14T06:07:45;18.23;;;9.40;;
53503;SDS011;39387;50.998;22.340;2022-10-14T06:10:12;17.17;;;8.23;;
53503;SDS011;39387;50.998;22.340;2022-10-14T06:12:40;21.83;;;9.45;;
53503;SDS011;39387;50.998;22.340;2022-10-14T06:15:07;16.35;;;8.80;;
53503;SDS011;39387;50.998;22.340;2022-10-14T06:17:36;20.52;;;9.38;;
53503;SDS011;39387;50.998;22.340;2022-10-14T06:20:04;17.67;;;8.75;;
53503;SDS011;39387;50.998;22.340;2022-10-14T06:22:32;23.42;;;10.18;;
53503;SDS011;39387;50.998;22.340;2022-10-14T06:24:59;21.20;;;10.18;;
53503;SDS011;39387;50.998;22.340;2022-10-14T06:27:27;20.60;;;10.52;;
53503;SDS011;39387;50.998;22.340;2022-10-14T06:29:54;20.08;;;9.80;;
53503;SDS011;39387;50.998;22.340;2022-10-14T06:32:21;23.30;;;10.40;;
53503;SDS011;39387;50.998;22.340;2022-10-14T06:34:50;17.00;;;9.45;;
53503;SDS011;39387;50.998;22.340;2022-10-14T06:37:18;19.73;;;9.38;;
53503;SDS011;39387;50.998;22.340;2022-10-14T06:39:45;16.90;;;8.85;;
53503;SDS011;39387;50.998;22.340;2022-10-14T06:42:12;19.45;;;9.40;;
53503;SDS011;39387;50.998;22.340;2022-10-14T06:44:40;17.42;;;9.13;;
53503;SDS011;39387;50.998;22.340;2022-10-14T06:47:07;21.50;;;10.45;;
53503;SDS011;39387;50.998;22.340;2022-10-14T06:49:34;22.27;;;10.10;;
53503;SDS011;39387;50.998;22.340;2022-10-14T06:52:03;15.68;;;9.35;;
53503;SDS011;39387;50.998;22.340;2022-10-14T06:54:31;18.85;;;9.30;;
53503;SDS011;39387;50.998;22.340;2022-10-14T06:56:58;20.35;;;9.90;;
53503;SDS011;39387;50.998;22.340;2022-10-14T06:59:25;21.65;;;10.48;;
53503;SDS011;39387;50.998;22.340;2022-10-14T07:01:53;18.13;;;10.07;;
53503;SDS011;39387;50.998;22.340;2022-10-14T07:04:20;19.50;;;11.15;;
53503;SDS011;39387;50.998;22.340;2022-10-14T07:06:48;21.45;;;11.10;;
53503;SDS011;39387;50.998;22.340;2022-10-14T07:09:17;19.65;;;10.40;;
53503;SDS011;39387;50.998;22.340;2022-10-14T07:11:45;17.98;;;10.30;;
53503;SDS011;39387;50.998;22.340;2022-10-14T07:14:13;15.63;;;8.93;;
53503;SDS011;39387;50.998;22.340;2022-10-14T07:16:41;16.40;;;8.88;;
53503;SDS011;39387;50.998;22.340;2022-10-14T07:19:09;15.25;;;9.35;;
53503;SDS011;39387;50.998;22.340;2022-10-14T07:21:36;15.40;;;8.93;;
53503;SDS011;39387;50.998;22.340;2022-10-14T07:24:04;17.02;;;8.55;;
53503;SDS011;39387;50.998;22.340;2022-10-14T07:26:33;16.90;;;9.10;;
53503;SDS011;39387;50.998;22.340;2022-10-14T07:29:02;15.85;;;9.52;;
53503;SDS011;39387;50.998;22.340;2022-10-14T07:31:30;15.30;;;9.15;;
53503;SDS011;39387;50.998;22.340;2022-10-14T07:33:58;15.68;;;9.38;;
53503;SDS011;39387;50.998;22.340;2022-10-14T07:36:26;12.45;;;7.90;;
53503;SDS011;39387;50.998;22.340;2022-10-14T07:38:54;13.30;;;8.50;;
53503;SDS011;39387;50.998;22.340;2022-10-14T07:41:21;16.60;;;8.32;;
53503;SDS011;39387;50.998;22.340;2022-10-14T07:43:52;13.43;;;8.48;;
53503;SDS011;39387;50.998;22.340;2022-10-14T07:46:21;14.60;;;8.57;;
53503;SDS011;39387;50.998;22.340;2022-10-14T07:48:57;15.82;;;8.77;;
53503;SDS011;39387;50.998;22.340;2022-10-14T07:51:25;13.63;;;8.60;;
53503;SDS011;39387;50.998;22.340;2022-10-14T07:53:53;13.43;;;8.13;;
53503;SDS011;39387;50.998;22.340;2022-10-14T07:56:20;13.68;;;8.80;;
53503;SDS011;39387;50.998;22.340;2022-10-14T07:58:48;13.80;;;9.02;;
53503;SDS011;39387;50.998;22.340;2022-10-14T08:01:17;12.27;;;7.68;;
53503;SDS011;39387;50.998;22.340;2022-10-14T08:03:45;13.85;;;8.55;;
53503;SDS011;39387;50.998;22.340;2022-10-14T08:06:13;13.73;;;9.00;;
53503;SDS011;39387;50.998;22.340;2022-10-14T08:08:41;15.23;;;8.32;;
53503;SDS011;39387;50.998;22.340;2022-10-14T08:11:11;13.13;;;8.30;;
53503;SDS011;39387;50.998;22.340;2022-10-14T08:13:40;13.93;;;8.43;;
53503;SDS011;39387;50.998;22.340;2022-10-14T08:16:11;12.80;;;7.90;;
53503;SDS011;39387;50.998;22.340;2022-10-14T08:18:41;13.50;;;8.07;;
53503;SDS011;39387;50.998;22.340;2022-10-14T08:21:09;12.45;;;8.10;;
53503;SDS011;39387;50.998;22.340;2022-10-14T08:23:36;12.30;;;7.50;;
53503;SDS011;39387;50.998;22.340;2022-10-14T08:26:09;13.10;;;8.68;;
53503;SDS011;39387;50.998;22.340;2022-10-14T08:28:41;13.50;;;7.90;;
53503;SDS011;39387;50.998;22.340;2022-10-14T08:31:09;11.93;;;8.10;;
53503;SDS011;39387;50.998;22.340;2022-10-14T08:33:36;13.82;;;8.75;;
53503;SDS011;39387;50.998;22.340;2022-10-14T08:36:05;13.02;;;8.32;;
53503;SDS011;39387;50.998;22.340;2022-10-14T08:38:33;14.23;;;9.13;;
53503;SDS011;39387;50.998;22.340;2022-10-14T08:41:02;14.55;;;8.60;;
53503;SDS011;39387;50.998;22.340;2022-10-14T08:43:51;12.20;;;8.43;;
53503;SDS011;39387;50.998;22.340;2022-10-14T08:46:21;14.35;;;8.18;;
53503;SDS011;39387;50.998;22.340;2022-10-14T08:48:50;14.70;;;8.65;;
53503;SDS011;39387;50.998;22.340;2022-10-14T08:51:23;13.70;;;8.95;;
53503;SDS011;39387;50.998;22.340;2022-10-14T08:53:51;11.85;;;8.05;;
53503;SDS011;39387;50.998;22.340;2022-10-14T08:56:21;12.90;;;8.27;;
53503;SDS011;39387;50.998;22.340;2022-10-14T08:58:50;14.90;;;9.20;;
53503;SDS011;39387;50.998;22.340;2022-10-14T09:01:21;15.30;;;9.35;;
53503;SDS011;39387;50.998;22.340;2022-10-14T09:03:50;14.98;;;9.50;;
53503;SDS011;39387;50.998;22.340;2022-10-14T09:06:25;12.73;;;8.60;;
53503;SDS011;39387;50.998;22.340;2022-10-14T09:08:54;14.10;;;8.73;;
53503;SDS011;39387;50.998;22.340;2022-10-14T09:11:24;14.10;;;8.13;;
53503;SDS011;39387;50.998;22.340;2022-10-14T09:13:53;14.75;;;9.30;;
53503;SDS011;39387;50.998;22.340;2022-10-14T09:16:23;14.32;;;8.57;;
53503;SDS011;39387;50.998;22.340;2022-10-14T09:18:52;13.10;;;9.18;;
53503;SDS011;39387;50.998;22.340;2022-10-14T09:21:28;13.88;;;8.98;;
53503;SDS011;39387;50.998;22.340;2022-10-14T09:23:57;13.85;;;8.95;;
53503;SDS011;39387;50.998;22.340;2022-10-14T09:26:29;14.50;;;9.65;;
53503;SDS011;39387;50.998;22.340;2022-10-14T09:29:04;11.68;;;8.70;;
53503;SDS011;39387;50.998;22.340;2022-10-14T09:31:34;14.90;;;8.80;;
53503;SDS011;39387;50.998;22.340;2022-10-14T09:34:02;13.68;;;8.73;;
53503;SDS011;39387;50.998;22.340;2022-10-14T09:36:30;15.93;;;8.60;;
53503;SDS011;39387;50.998;22.340;2022-10-14T09:38:58;14.85;;;9.23;;
53503;SDS011;39387;50.998;22.340;2022-10-14T09:41:26;15.25;;;9.63;;
53503;SDS011;39387;50.998;22.340;2022-10-14T09:44:19;12.88;;;8.70;;
53503;SDS011;39387;50.998;22.340;2022-10-14T09:49:15;15.35;;;9.35;;
53503;SDS011;39387;50.998;22.340;2022-10-14T09:51:45;13.43;;;8.23;;
53503;SDS011;39387;50.998;22.340;2022-10-14T09:54:21;15.70;;;9.10;;
53503;SDS011;39387;50.998;22.340;2022-10-14T09:56:56;14.35;;;8.77;;
53503;SDS011;39387;50.998;22.340;2022-10-14T09:59:25;13.30;;;8.77;;
53503;SDS011;39387;50.998;22.340;2022-10-14T10:01:54;13.23;;;8.38;;
53503;SDS011;39387;50.998;22.340;2022-10-14T10:04:23;12.80;;;8.35;;
53503;SDS011;39387;50.998;22.340;2022-10-14T10:06:54;13.85;;;9.30;;
53503;SDS011;39387;50.998;22.340;2022-10-14T10:09:22;14.35;;;9.00;;
53503;SDS011;39387;50.998;22.340;2022-10-14T10:11:49;11.70;;;8.15;;
53503;SDS011;39387;50.998;22.340;2022-10-14T10:14:20;11.90;;;8.13;;
53503;SDS011;39387;50.998;22.340;2022-10-14T10:16:49;16.73;;;9.88;;
53503;SDS011;39387;50.998;22.340;2022-10-14T10:19:19;22.33;;;11.77;;
53503;SDS011;39387;50.998;22.340;2022-10-14T10:21:52;25.02;;;13.32;;
53503;SDS011;39387;50.998;22.340;2022-10-14T10:24:21;21.17;;;12.70;;
53503;SDS011;39387;50.998;22.340;2022-10-14T10:26:49;19.40;;;10.85;;
53503;SDS011;39387;50.998;22.340;2022-10-14T10:29:22;24.48;;;12.73;;
53503;SDS011;39387;50.998;22.340;2022-10-14T10:31:58;18.23;;;10.75;;
53503;SDS011;39387;50.998;22.340;2022-10-14T10:34:41;13.73;;;9.38;;
53503;SDS011;39387;50.998;22.340;2022-10-14T10:37:21;18.27;;;11.20;;
53503;SDS011;39387;50.998;22.340;2022-10-14T10:39:54;19.75;;;11.18;;
53503;SDS011;39387;50.998;22.340;2022-10-14T10:42:31;14.07;;;9.75;;
53503;SDS011;39387;50.998;22.340;2022-10-14T10:45:05;13.25;;;8.73;;
53503;SDS011;39387;50.998;22.340;2022-10-14T10:47:42;15.35;;;10.27;;
53503;SDS011;39387;50.998;22.340;2022-10-14T10:50:20;19.40;;;10.90;;
53503;SDS011;39387;50.998;22.340;2022-10-14T10:52:57;16.45;;;9.23;;
53503;SDS011;39387;50.998;22.340;2022-10-14T10:55:31;13.95;;;9.23;;
53503;SDS011;39387;50.998;22.340;2022-10-14T10:58:04;15.15;;;10.10;;
53503;SDS011;39387;50.998;22.340;2022-10-14T11:00:44;13.90;;;8.73;;
53503;SDS011;39387;50.998;22.340;2022-10-14T11:03:19;14.75;;;8.80;;
53503;SDS011;39387;50.998;22.340;2022-10-14T11:08:33;9.90;;;7.40;;
53503;SDS011;39387;50.998;22.340;2022-10-14T11:11:36;12.27;;;8.63;;
53503;SDS011;39387;50.998;22.340;2022-10-14T11:14:29;10.63;;;7.88;;
53503;SDS011;39387;50.998;22.340;2022-10-14T11:17:05;11.43;;;8.52;;
53503;SDS011;39387;50.998;22.340;2022-10-14T11:19:39;10.52;;;7.68;;
53503;SDS011;39387;50.998;22.340;2022-10-14T11:22:14;11.55;;;7.88;;
53503;SDS011;39387;50.998;22.340;2022-10-14T11:24:49;10.52;;;7.75;;
53503;SDS011;39387;50.998;22.340;2022-10-14T11:27:26;11.50;;;7.95;;
53503;SDS011;39387;50.998;22.340;2022-10-14T11:30:12;9.98;;;7.25;;
53503;SDS011;39387;50.998;22.340;2022-10-14T11:32:45;11.07;;;7.82;;
53503;SDS011;39387;50.998;22.340;2022-10-14T11:35:31;11.57;;;8.32;;
53503;SDS011;39387;50.998;22.340;2022-10-14T11:38:06;12.00;;;8.68;;
53503;SDS011;39387;50.998;22.340;2022-10-14T11:40:41;11.55;;;7.55;;
53503;SDS011;39387;50.998;22.340;2022-10-14T11:43:15;10.13;;;7.68;;
53503;SDS011;39387;50.998;22.340;2022-10-14T11:45:51;12.82;;;7.75;;
53503;SDS011;39387;50.998;22.340;2022-10-14T11:48:24;10.38;;;7.53;;
53503;SDS011;39387;50.998;22.340;2022-10-14T11:50:56;12.07;;;8.35;;
53503;SDS011;39387;50.998;22.340;2022-10-14T11:53:33;12.23;;;8.23;;
53503;SDS011;39387;50.998;22.340;2022-10-14T11:56:23;11.80;;;8.30;;
53503;SDS011;39387;50.998;22.340;2022-10-14T11:58:57;9.85;;;7.38;;
53503;SDS011;39387;50.998;22.340;2022-10-14T12:01:27;11.00;;;7.50;;
53503;SDS011;39387;50.998;22.340;2022-10-14T12:03:58;12.18;;;8.20;;
53503;SDS011;39387;50.998;22.340;2022-10-14T12:06:29;8.98;;;6.82;;
53503;SDS011;39387;50.998;22.340;2022-10-14T12:09:01;8.80;;;6.88;;
53503;SDS011;39387;50.998;22.340;2022-10-14T12:11:32;11.25;;;7.28;;
53503;SDS011;39387;50.998;22.340;2022-10-14T12:16:31;10.35;;;7.45;;
53503;SDS011;39387;50.998;22.340;2022-10-14T12:18:59;10.48;;;7.55;;
53503;SDS011;39387;50.998;22.340;2022-10-14T12:21:28;10.90;;;7.35;;
53503;SDS011;39387;50.998;22.340;2022-10-14T12:23:59;11.35;;;8.02;;
53503;SDS011;39387;50.998;22.340;2022-10-14T12:26:41;15.07;;;9.25;;
53503;SDS011;39387;50.998;22.340;2022-10-14T12:29:16;11.30;;;8.00;;
53503;SDS011;39387;50.998;22.340;2022-10-14T12:31:50;16.33;;;9.45;;
53503;SDS011;39387;50.998;22.340;2022-10-14T12:34:32;19.08;;;10.70;;
53503;SDS011;39387;50.998;22.340;2022-10-14T12:40:23;13.55;;;9.57;;
53503;SDS011;39387;50.998;22.340;2022-10-14T12:42:59;13.85;;;8.63;;
53503;SDS011;39387;50.998;22.340;2022-10-14T12:45:30;12.93;;;9.05;;
53503;SDS011;39387;50.998;22.340;2022-10-14T12:48:03;12.88;;;8.35;;
53503;SDS011;39387;50.998;22.340;2022-10-14T12:50:36;11.90;;;8.45;;
53503;SDS011;39387;50.998;22.340;2022-10-14T12:53:04;14.40;;;9.55;;
53503;SDS011;39387;50.998;22.340;2022-10-14T12:55:35;11.43;;;8.32;;
53503;SDS011;39387;50.998;22.340;2022-10-14T12:58:16;13.13;;;9.60;;
53503;SDS011;39387;50.998;22.340;2022-10-14T13:00:53;14.55;;;8.65;;
53503;SDS011;39387;50.998;22.340;2022-10-14T13:03:23;16.02;;;9.63;;
53503;SDS011;39387;50.998;22.340;2022-10-14T13:05:52;15.30;;;10.07;;
53503;SDS011;39387;50.998;22.340;2022-10-14T13:08:26;12.30;;;8.88;;
53503;SDS011;39387;50.998;22.340;2022-10-14T13:13:49;15.80;;;10.35;;
53503;SDS011;39387;50.998;22.340;2022-10-14T13:19:38;15.20;;;9.93;;
53503;SDS011;39387;50.998;22.340;2022-10-14T13:25:09;12.77;;;9.25;;
53503;SDS011;39387;50.998;22.340;2022-10-14T13:27:49;13.93;;;9.50;;
53503;SDS011;39387;50.998;22.340;2022-10-14T13:30:22;13.18;;;9.57;;
53503;SDS011;39387;50.998;22.340;2022-10-14T13:32:53;13.82;;;9.20;;
53503;SDS011;39387;50.998;22.340;2022-10-14T13:35:25;14.82;;;10.10;;
53503;SDS011;39387;50.998;22.340;2022-10-14T13:37:57;14.48;;;9.30;;
53503;SDS011;39387;50.998;22.340;2022-10-14T13:40:28;14.75;;;9.70;;
53503;SDS011;39387;50.998;22.340;2022-10-14T13:42:59;15.52;;;9.82;;
53503;SDS011;39387;50.998;22.340;2022-10-14T13:45:29;12.88;;;9.27;;
53503;SDS011;39387;50.998;22.340;2022-10-14T13:48:00;11.68;;;8.40;;
53503;SDS011;39387;50.998;22.340;2022-10-14T13:50:30;15.23;;;9.10;;
53503;SDS011;39387;50.998;22.340;2022-10-14T13:53:00;13.35;;;8.45;;
53503;SDS011;39387;50.998;22.340;2022-10-14T13:58:01;12.32;;;8.63;;
53503;SDS011;39387;50.998;22.340;2022-10-14T14:00:30;12.82;;;8.15;;
53503;SDS011;39387;50.998;22.340;2022-10-14T14:03:00;9.93;;;8.00;;
53503;SDS011;39387;50.998;22.340;2022-10-14T14:05:28;11.10;;;7.72;;
53503;SDS011;39387;50.998;22.340;2022-10-14T14:07:57;10.88;;;8.07;;
53503;SDS011;39387;50.998;22.340;2022-10-14T14:10:25;12.48;;;8.20;;
53503;SDS011;39387;50.998;22.340;2022-10-14T14:12:53;13.77;;;8.23;;
53503;SDS011;39387;50.998;22.340;2022-10-14T14:15:21;10.75;;;7.28;;
53503;SDS011;39387;50.998;22.340;2022-10-14T14:17:50;12.05;;;7.75;;
53503;SDS011;39387;50.998;22.340;2022-10-14T14:20:20;9.65;;;7.35;;
53503;SDS011;39387;50.998;22.340;2022-10-14T14:25:20;13.43;;;7.93;;
53503;SDS011;39387;50.998;22.340;2022-10-14T14:27:51;10.25;;;7.47;;
53503;SDS011;39387;50.998;22.340;2022-10-14T14:30:22;10.40;;;7.32;;
53503;SDS011;39387;50.998;22.340;2022-10-14T14:32:54;12.30;;;7.13;;
53503;SDS011;39387;50.998;22.340;2022-10-14T14:35:25;10.60;;;7.47;;
53503;SDS011;39387;50.998;22.340;2022-10-14T14:37:52;13.57;;;8.02;;
53503;SDS011;39387;50.998;22.340;2022-10-14T14:40:20;12.45;;;7.75;;
53503;SDS011;39387;50.998;22.340;2022-10-14T14:42:49;10.85;;;7.15;;
53503;SDS011;39387;50.998;22.340;2022-10-14T14:45:18;12.68;;;7.95;;
53503;SDS011;39387;50.998;22.340;2022-10-14T14:47:46;11.77;;;7.82;;
53503;SDS011;39387;50.998;22.340;2022-10-14T14:50:15;14.32;;;8.85;;
53503;SDS011;39387;50.998;22.340;2022-10-14T14:52:45;15.52;;;8.88;;
53503;SDS011;39387;50.998;22.340;2022-10-14T14:55:33;14.98;;;9.52;;
53503;SDS011;39387;50.998;22.340;2022-10-14T14:58:05;15.30;;;9.10;;
53503;SDS011;39387;50.998;22.340;2022-10-14T15:00:47;16.70;;;9.55;;
53503;SDS011;39387;50.998;22.340;2022-10-14T15:03:16;13.82;;;8.77;;
53503;SDS011;39387;50.998;22.340;2022-10-14T15:05:47;12.82;;;8.73;;
53503;SDS011;39387;50.998;22.340;2022-10-14T15:08:19;16.55;;;8.88;;